Time;durP1;ratioP1;P1;durP2;ratioP2;P2;SDS_P1;SDS_P2;PMS_P1;PMS_P2;Temp;Humidity;BMP_temperature;BMP_pressure;BME280_temperature;BME280_humidity;BME280_pressure;Samples;Min_cycle;Max_cycle;Signal;HPM_P1;HPM_P2
2022/12/09 00:01:22;;;;;;;37.97;31.60;;;;;;;0.80;100.00;94444.16;5096456;28;20028;-62
2022/12/09 00:03:48;;;;;;;32.25;28.65;;;;;;;0.80;100.00;94433.78;5100559;28;20046;-61
2022/12/09 00:06:28;;;;;;;38.45;32.90;;;;;;;0.88;100.00;94432.38;5109657;28;20030;-62
2022/12/09 00:08:55;;;;;;;44.03;36.58;;;;;;;0.96;100.00;94433.47;5105723;28;20091;-57
2022/12/09 00:11:21;;;;;;;51.30;40.63;;;;;;;1.00;100.00;94423.72;5099242;28;20031;-56
2022/12/09 00:13:51;;;;;;;55.33;45.58;;;;;;;0.96;100.00;94419.69;5104369;28;20027;-57
2022/12/09 00:16:17;;;;;;;54.72;43.63;;;;;;;1.08;100.00;94413.59;5099143;28;20023;-58
2022/12/09 00:18:42;;;;;;;51.60;39.55;;;;;;;1.05;100.00;94412.97;5109858;28;20046;-57
2022/12/09 00:21:19;;;;;;;53.17;42.88;;;;;;;1.00;100.00;94413.34;5107625;28;20039;-57
2022/12/09 00:23:45;;;;;;;39.13;34.25;;;;;;;0.94;100.00;94409.44;5104107;28;20024;-64
2022/12/09 00:26:11;;;;;;;39.67;29.48;;;;;;;0.96;100.00;94411.91;5096972;28;20412;-56
2022/12/09 00:28:37;;;;;;;36.95;30.98;;;;;;;0.94;100.00;94403.41;5101795;28;20035;-57
2022/12/09 00:31:04;;;;;;;39.60;32.35;;;;;;;0.97;100.00;94401.44;5107685;28;20027;-57
2022/12/09 00:33:30;;;;;;;45.70;38.13;;;;;;;0.94;100.00;94408.59;5098873;28;20039;-56
2022/12/09 00:36:06;;;;;;;54.83;36.65;;;;;;;0.93;100.00;94404.38;5103273;28;20578;-57
2022/12/09 00:38:32;;;;;;;57.35;42.88;;;;;;;0.89;100.00;94403.78;5101090;28;20053;-57
2022/12/09 00:40:57;;;;;;;47.10;35.42;;;;;;;0.95;100.00;94392.09;5105411;28;20118;-56
2022/12/09 00:43:22;;;;;;;68.35;45.35;;;;;;;1.03;100.00;94394.13;5102203;28;20024;-62
2022/12/09 00:45:48;;;;;;;43.00;34.58;;;;;;;0.90;100.00;94387.28;5100202;28;20024;-62
2022/12/09 00:48:13;;;;;;;56.38;40.70;;;;;;;1.11;100.00;94379.66;5104847;28;20114;-64
2022/12/09 00:50:38;;;;;;;108.28;59.42;;;;;;;1.09;100.00;94368.56;5104153;28;20027;-62
2022/12/09 00:53:03;;;;;;;73.10;48.85;;;;;;;1.00;100.00;94351.94;5095180;28;20011;-62
2022/12/09 00:55:29;;;;;;;50.75;39.47;;;;;;;0.95;100.00;94358.41;5101491;28;20043;-62
2022/12/09 00:57:54;;;;;;;43.72;36.05;;;;;;;0.80;100.00;94350.88;5101633;28;20023;-62
2022/12/09 01:00:19;;;;;;;40.00;33.20;;;;;;;0.73;100.00;94339.31;5103618;28;20490;-62
2022/12/09 01:02:45;;;;;;;37.90;30.35;;;;;;;0.70;100.00;94331.75;5105267;28;20503;-60
2022/12/09 01:05:10;;;;;;;39.58;32.63;;;;;;;0.73;100.00;94326.34;5096858;28;20082;-64
2022/12/09 01:07:36;;;;;;;38.58;32.10;;;;;;;0.67;100.00;94330.25;5102516;28;20034;-64
2022/12/09 01:10:03;;;;;;;37.60;31.67;;;;;;;0.68;100.00;94320.69;5107672;28;20042;-64
2022/12/09 01:12:28;;;;;;;40.75;34.13;;;;;;;0.68;100.00;94326.72;5096144;28;20032;-64
2022/12/09 01:14:54;;;;;;;47.10;36.10;;;;;;;0.66;100.00;94323.41;5098997;28;20526;-64
2022/12/09 01:17:19;;;;;;;36.50;31.08;;;;;;;0.64;100.00;94327.06;5105864;28;20087;-64
2022/12/09 01:19:45;;;;;;;37.97;30.25;;;;;;;0.64;100.00;94321.88;5101181;28;20024;-64
2022/12/09 01:22:10;;;;;;;52.42;39.15;;;;;;;0.68;100.00;94328.47;5096202;28;20066;-64
2022/12/09 01:24:35;;;;;;;50.83;40.33;;;;;;;0.73;100.00;94326.34;5104473;28;20590;-61
2022/12/09 01:27:01;;;;;;;45.92;37.28;;;;;;;0.72;100.00;94322.09;5098399;28;20039;-57
2022/12/09 01:29:26;;;;;;;39.42;30.73;;;;;;;0.74;100.00;94309.88;5092883;28;20024;-56
2022/12/09 01:31:53;;;;;;;37.58;31.67;;;;;;;0.71;100.00;94312.69;5099204;28;21429;-56
2022/12/09 01:34:18;;;;;;;35.53;30.90;;;;;;;0.71;100.00;94318.72;5100725;28;20016;-57
2022/12/09 01:36:46;;;;;;;41.42;33.55;;;;;;;0.78;100.00;94320.84;5100611;28;20044;-57
2022/12/09 01:39:12;;;;;;;49.58;39.25;;;;;;;0.90;100.00;94322.50;5093549;28;20464;-58
2022/12/09 01:41:37;;;;;;;76.95;48.08;;;;;;;0.83;100.00;94313.53;5099060;28;20154;-60
2022/12/09 01:44:12;;;;;;;51.78;37.33;;;;;;;0.73;100.00;94308.22;5104973;28;20080;-59
2022/12/09 01:46:38;;;;;;;40.30;31.48;;;;;;;0.81;100.00;94302.47;5096420;28;20455;-60
2022/12/09 01:49:07;;;;;;;38.47;31.35;;;;;;;0.88;100.00;94305.41;5102550;28;20032;-60
2022/12/09 01:51:32;;;;;;;39.95;30.58;;;;;;;0.80;100.00;94300.81;5108593;28;20027;-60
2022/12/09 01:53:58;;;;;;;39.22;33.30;;;;;;;0.74;100.00;94301.28;5099417;28;20077;-60
2022/12/09 01:56:31;;;;;;;35.20;30.50;;;;;;;0.68;100.00;94315.50;5098338;28;20020;-61
2022/12/09 01:59:01;;;;;;;34.95;30.45;;;;;;;0.68;100.00;94302.56;5099597;28;20077;-60
2022/12/09 02:01:27;;;;;;;42.13;32.90;;;;;;;0.79;100.00;94293.97;5107097;28;20020;-56
2022/12/09 02:03:53;;;;;;;50.50;40.42;;;;;;;0.94;100.00;94266.91;5100154;28;20494;-62
2022/12/09 02:06:19;;;;;;;45.65;38.17;;;;;;;0.92;100.00;94248.06;5100820;28;20107;-62
2022/12/09 02:08:47;;;;;;;40.90;33.97;;;;;;;0.91;100.00;94236.03;5101061;28;20077;-62
2022/12/09 02:11:37;;;;;;;37.03;32.30;;;;;;;0.77;100.00;94229.31;5101462;28;20028;-62
2022/12/09 02:14:17;;;;;;;37.85;31.23;;;;;;;0.68;100.00;94230.03;5103734;28;20088;-62
2022/12/09 02:17:19;;;;;;;38.78;32.17;;;;;;;0.67;100.00;94230.97;5104623;28;20111;-62
2022/12/09 02:20:02;;;;;;;36.30;30.67;;;;;;;0.71;100.00;94251.34;5099695;28;20138;-61
2022/12/09 02:23:04;;;;;;;35.58;27.92;;;;;;;0.77;100.00;94260.41;5105164;28;20015;-72
2022/12/09 02:25:41;;;;;;;31.80;28.00;;;;;;;0.76;100.00;94256.16;5106588;28;20469;-61
2022/12/09 02:28:06;;;;;;;33.28;28.67;;;;;;;0.84;100.00;94248.66;5108838;28;20036;-61
2022/12/09 02:30:39;;;;;;;32.88;27.65;;;;;;;0.93;100.00;94231.56;5088866;28;20036;-61
2022/12/09 02:33:34;;;;;;;27.90;24.88;;;;;;;0.80;100.00;94242.06;5096707;28;20027;-61
2022/12/09 02:36:10;;;;;;;36.22;29.25;;;;;;;0.70;100.00;94231.56;5106376;28;20008;-61
2022/12/09 02:38:39;;;;;;;34.58;29.15;;;;;;;0.69;100.00;94236.84;5106876;28;20035;-57
2022/12/09 02:41:14;;;;;;;32.35;27.75;;;;;;;0.60;100.00;94253.13;5111636;28;20397;-61
2022/12/09 02:43:46;;;;;;;34.28;27.67;;;;;;;0.62;100.00;94249.44;5098936;28;20552;-71
2022/12/09 02:46:13;;;;;;;37.33;28.95;;;;;;;0.55;100.00;94256.88;5099765;28;20497;-71
2022/12/09 02:48:42;;;;;;;31.77;27.85;;;;;;;0.51;100.00;94252.03;5104908;28;20036;-71
2022/12/09 02:51:15;;;;;;;34.55;28.65;;;;;;;0.47;100.00;94245.44;5100570;28;20039;-71
2022/12/09 02:53:43;;;;;;;33.22;27.95;;;;;;;0.71;100.00;94232.38;5106683;28;20019;-71
2022/12/09 02:56:09;;;;;;;31.70;28.08;;;;;;;0.70;100.00;94223.81;5103001;28;20024;-73
2022/12/09 02:58:34;;;;;;;36.40;31.52;;;;;;;0.71;100.00;94227.19;5107869;28;20383;-56
2022/12/09 03:00:59;;;;;;;35.70;28.80;;;;;;;0.84;100.00;94199.41;5096354;27;20028;-64
2022/12/09 03:03:29;;;;;;;32.08;26.95;;;;;;;0.78;100.00;94199.91;5106227;28;20065;-60
2022/12/09 03:06:02;;;;;;;36.42;29.85;;;;;;;0.79;100.00;94187.75;5107580;28;20015;-60
2022/12/09 03:08:46;;;;;;;36.58;31.17;;;;;;;0.76;100.00;94173.25;5103706;28;20106;-59
2022/12/09 03:11:14;;;;;;;35.35;31.08;;;;;;;0.68;100.00;94186.81;5102060;28;20032;-59
2022/12/09 03:13:48;;;;;;;37.70;31.60;;;;;;;0.75;100.00;94189.75;5101438;28;20039;-59
2022/12/09 03:16:20;;;;;;;39.30;34.75;;;;;;;0.69;100.00;94177.28;5102516;28;20031;-59
2022/12/09 03:18:51;;;;;;;44.10;36.38;;;;;;;0.65;100.00;94165.50;5100756;28;20576;-61
2022/12/09 03:21:20;;;;;;;44.50;35.03;;;;;;;0.63;100.00;94159.63;5105065;28;20034;-64
2022/12/09 03:23:48;;;;;;;40.05;35.20;;;;;;;0.54;100.00;94174.91;5101831;28;20031;-64
2022/12/09 03:26:15;;;;;;;42.45;35.47;;;;;;;0.44;100.00;94181.75;5096342;27;20019;-64
2022/12/09 03:28:46;;;;;;;40.65;33.60;;;;;;;0.43;100.00;94167.16;5106840;28;20027;-64
2022/12/09 03:31:16;;;;;;;39.58;33.08;;;;;;;0.44;100.00;94166.22;5106300;28;20027;-64
2022/12/09 03:33:47;;;;;;;38.20;31.55;;;;;;;0.52;100.00;94174.22;5105024;28;20015;-64
2022/12/09 03:36:15;;;;;;;41.55;35.40;;;;;;;0.61;100.00;94161.50;5102988;28;20034;-65
2022/12/09 03:38:43;;;;;;;40.63;34.58;;;;;;;0.69;100.00;94159.13;5088170;28;20391;-71
2022/12/09 03:41:27;;;;;;;36.35;32.40;;;;;;;0.71;100.00;94168.44;5084322;28;20025;-57
2022/12/09 03:44:07;;;;;;;38.70;31.70;;;;;;;0.75;100.00;94163.84;5086980;28;20032;-56
2022/12/09 03:46:32;;;;;;;37.13;31.55;;;;;;;0.71;100.00;94165.03;5086614;28;20482;-58
2022/12/09 03:48:58;;;;;;;38.22;31.20;;;;;;;0.75;100.00;94171.59;5083156;28;20090;-58
2022/12/09 03:51:29;;;;;;;36.83;32.10;;;;;;;0.75;100.00;94174.19;5077925;28;20486;-59
2022/12/09 03:54:29;;;;;;;37.05;31.27;;;;;;;0.65;100.00;94157.75;5083987;28;20039;-57
2022/12/09 03:56:57;;;;;;;42.00;32.85;;;;;;;0.69;100.00;94156.56;5085820;28;20025;-58
2022/12/09 03:59:27;;;;;;;36.50;32.25;;;;;;;0.66;100.00;94165.41;5084859;28;20502;-59
2022/12/09 04:01:53;;;;;;;38.05;31.63;;;;;;;0.73;100.00;94160.53;5088187;28;20078;-63
2022/12/09 04:04:19;;;;;;;38.50;32.45;;;;;;;0.65;100.00;94165.50;5088600;28;20020;-63
2022/12/09 04:06:45;;;;;;;37.00;32.97;;;;;;;0.59;100.00;94174.56;5083717;28;20043;-64
2022/12/09 04:09:11;;;;;;;39.17;33.50;;;;;;;0.73;100.00;94162.31;5077010;28;20032;-63
2022/12/09 04:11:36;;;;;;;41.05;32.70;;;;;;;0.64;100.00;94172.44;5083379;28;20036;-63
2022/12/09 04:14:02;;;;;;;36.53;32.65;;;;;;;0.62;100.00;94171.75;5085769;28;20493;-64
2022/12/09 04:16:27;;;;;;;36.67;31.38;;;;;;;0.65;100.00;94168.09;5062034;28;20490;-59
2022/12/09 04:18:53;;;;;;;35.42;31.23;;;;;;;0.66;100.00;94165.41;5082671;28;20039;-64
2022/12/09 04:21:18;;;;;;;40.15;34.45;;;;;;;0.68;100.00;94154.91;5081716;28;20442;-64
2022/12/09 04:23:43;;;;;;;37.45;32.95;;;;;;;0.75;100.00;94147.47;5085430;28;20020;-65
2022/12/09 04:26:14;;;;;;;39.70;33.00;;;;;;;0.68;100.00;94127.25;5082440;28;20017;-64
2022/12/09 04:28:39;;;;;;;41.03;34.63;;;;;;;0.61;100.00;94114.88;5086072;28;20035;-64
2022/12/09 04:31:09;;;;;;;39.67;32.97;;;;;;;0.61;100.00;94125.25;5087289;28;20401;-65
2022/12/09 04:33:34;;;;;;;41.28;32.80;;;;;;;0.62;100.00;94122.53;5079236;28;20090;-64
2022/12/09 04:36:05;;;;;;;36.38;31.73;;;;;;;0.62;100.00;94122.53;5076296;28;20032;-57
2022/12/09 04:38:31;;;;;;;36.67;32.50;;;;;;;0.57;100.00;94130.69;5076066;28;20044;-62
2022/12/09 04:40:58;;;;;;;36.25;32.22;;;;;;;0.53;100.00;94118.06;5087098;28;20032;-59
2022/12/09 04:43:24;;;;;;;37.40;32.45;;;;;;;0.53;100.00;94097.34;5084642;28;20512;-59
2022/12/09 04:45:49;;;;;;;39.38;32.88;;;;;;;0.52;100.00;94091.34;5079487;28;20024;-59
2022/12/09 04:48:14;;;;;;;37.95;32.22;;;;;;;0.48;100.00;94095.13;5074211;28;20570;-59
2022/12/09 04:50:40;;;;;;;37.15;32.13;;;;;;;0.57;100.00;94091.81;5083535;28;20505;-59
2022/12/09 04:53:05;;;;;;;37.53;33.20;;;;;;;0.57;100.00;94097.00;5083520;28;20485;-60
2022/12/09 04:55:31;;;;;;;38.30;33.72;;;;;;;0.56;100.00;94092.78;5084701;28;20374;-61
2022/12/09 04:57:56;;;;;;;40.10;33.53;;;;;;;0.57;100.00;94086.66;5086480;28;20022;-64
2022/12/09 05:00:22;;;;;;;42.88;34.65;;;;;;;0.56;100.00;94097.94;5083967;28;20508;-63
2022/12/09 05:02:47;;;;;;;40.40;34.75;;;;;;;0.56;100.00;94091.94;5084072;28;20050;-62
2022/12/09 05:05:12;;;;;;;40.35;33.22;;;;;;;0.52;100.00;94083.56;5077092;28;20004;-63
2022/12/09 05:07:38;;;;;;;40.33;33.70;;;;;;;0.57;100.00;94065.94;5082780;28;20409;-64
2022/12/09 05:10:04;;;;;;;36.35;31.92;;;;;;;0.55;100.00;94070.41;5078976;28;20027;-63
2022/12/09 05:12:31;;;;;;;42.08;35.58;;;;;;;0.55;100.00;94078.19;5080916;28;20111;-63
2022/12/09 05:14:57;;;;;;;42.17;35.08;;;;;;;0.55;100.00;94096.31;5088674;28;20413;-64
2022/12/09 05:17:23;;;;;;;42.72;33.92;;;;;;;0.59;100.00;94091.69;5074737;28;20028;-64
2022/12/09 05:19:48;;;;;;;40.38;34.58;;;;;;;0.66;100.00;94092.03;5071566;28;20067;-57
2022/12/09 05:22:17;;;;;;;38.75;34.55;;;;;;;0.75;100.00;94098.25;5073374;28;20055;-56
2022/12/09 05:24:43;;;;;;;40.00;34.55;;;;;;;0.69;100.00;94102.16;5071081;28;20052;-57
2022/12/09 05:27:10;;;;;;;43.47;36.72;;;;;;;0.71;100.00;94103.69;5071259;28;20025;-56
2022/12/09 05:29:35;;;;;;;42.85;34.13;;;;;;;0.84;100.00;94100.94;5071595;28;20086;-57
2022/12/09 05:32:01;;;;;;;40.88;34.85;;;;;;;0.82;100.00;94104.59;5074074;28;20028;-58
2022/12/09 05:34:27;;;;;;;43.88;35.22;;;;;;;0.77;100.00;94107.53;5082963;28;20024;-59
2022/12/09 05:36:52;;;;;;;39.97;35.63;;;;;;;0.84;100.00;94105.28;5074286;28;20127;-62
2022/12/09 05:39:17;;;;;;;38.38;33.85;;;;;;;0.84;100.00;94113.91;5071068;28;20030;-55
2022/12/09 05:41:45;;;;;;;42.80;36.65;;;;;;;0.87;100.00;94102.44;5074188;28;20028;-56
2022/12/09 05:44:11;;;;;;;41.45;36.97;;;;;;;0.92;100.00;94095.16;5072893;28;20029;-57
2022/12/09 05:46:36;;;;;;;42.38;36.60;;;;;;;0.90;100.00;94115.19;5076073;28;20017;-56
2022/12/09 05:49:01;;;;;;;43.85;37.88;;;;;;;0.78;100.00;94104.03;5083090;28;20016;-57
2022/12/09 05:51:28;;;;;;;47.95;39.72;;;;;;;0.74;100.00;94100.00;5074888;28;20020;-56
2022/12/09 05:53:56;;;;;;;43.47;37.00;;;;;;;0.67;100.00;94117.00;5072112;28;20020;-63
2022/12/09 05:56:23;;;;;;;44.00;37.70;;;;;;;0.67;100.00;94117.00;5071685;28;20028;-62
2022/12/09 05:58:49;;;;;;;44.67;38.10;;;;;;;0.69;100.00;94115.94;5072009;28;20036;-64
2022/12/09 06:01:14;;;;;;;43.00;38.35;;;;;;;0.68;100.00;94108.28;5081199;28;20157;-65
2022/12/09 06:03:40;;;;;;;44.45;37.40;;;;;;;0.66;100.00;94107.56;5082719;28;20028;-65
2022/12/09 06:06:11;;;;;;;43.97;37.22;;;;;;;0.68;100.00;94108.28;5069543;28;20052;-64
2022/12/09 06:08:37;;;;;;;49.45;41.13;;;;;;;0.66;100.00;94107.56;5083634;28;20032;-65
2022/12/09 06:11:03;;;;;;;46.40;39.33;;;;;;;0.70;100.00;94104.63;5084861;28;20492;-64
2022/12/09 06:13:28;;;;;;;46.20;39.78;;;;;;;0.73;100.00;94098.38;5073400;28;20406;-64
2022/12/09 06:15:54;;;;;;;48.88;41.38;;;;;;;0.74;100.00;94100.00;5072152;28;20021;-65
2022/12/09 06:18:19;;;;;;;49.15;41.35;;;;;;;0.69;100.00;94100.41;5082081;28;20492;-64
2022/12/09 06:20:45;;;;;;;44.70;39.42;;;;;;;0.70;100.00;94099.44;5069727;28;20026;-64
2022/12/09 06:23:10;;;;;;;44.55;38.67;;;;;;;0.73;100.00;94102.75;5072423;28;20020;-64
2022/12/09 06:25:35;;;;;;;47.95;39.95;;;;;;;0.76;100.00;94100.72;5071675;28;20554;-64
2022/12/09 06:28:02;;;;;;;49.60;42.60;;;;;;;0.78;100.00;94106.63;5072286;28;20031;-63
2022/12/09 06:30:27;;;;;;;46.20;40.90;;;;;;;0.81;100.00;94108.13;5071240;28;20163;-64
2022/12/09 06:32:52;;;;;;;47.40;40.65;;;;;;;0.80;100.00;94112.50;5071852;28;20116;-55
2022/12/09 06:35:18;;;;;;;42.38;37.28;;;;;;;0.79;100.00;94112.63;5070814;28;20402;-62
2022/12/09 06:37:43;;;;;;;46.00;38.80;;;;;;;0.81;100.00;94111.56;5074302;28;20052;-62
2022/12/09 06:40:09;;;;;;;45.53;40.22;;;;;;;0.96;100.00;94101.75;5073820;28;20033;-61
2022/12/09 06:42:35;;;;;;;47.95;39.88;;;;;;;1.02;100.00;94097.00;5075913;28;20027;-61
2022/12/09 06:45:00;;;;;;;50.83;43.67;;;;;;;0.96;100.00;94093.13;5060157;28;20036;-61
2022/12/09 06:47:26;;;;;;;49.90;42.00;;;;;;;0.97;100.00;94095.59;5080546;28;20434;-62
2022/12/09 06:49:51;;;;;;;44.35;39.55;;;;;;;1.04;100.00;94106.31;5081919;28;20081;-63
2022/12/09 06:52:16;;;;;;;45.10;37.42;;;;;;;1.09;100.00;94100.75;5078911;28;20105;-58
2022/12/09 06:54:42;;;;;;;44.83;39.90;;;;;;;1.09;100.00;94096.41;5082758;28;20028;-63
2022/12/09 06:57:07;;;;;;;44.08;39.08;;;;;;;1.02;100.00;94107.38;5085459;28;20028;-62
2022/12/09 06:59:32;;;;;;;48.92;41.15;;;;;;;0.95;100.00;94112.22;5088135;28;20035;-62
2022/12/09 07:01:58;;;;;;;44.03;39.35;;;;;;;0.93;100.00;94101.16;5088413;28;20027;-62
2022/12/09 07:04:23;;;;;;;44.63;39.50;;;;;;;0.97;100.00;94094.78;5083988;28;20024;-62
2022/12/09 07:06:49;;;;;;;50.22;42.85;;;;;;;1.08;100.00;94099.09;5083859;28;20032;-63
2022/12/09 07:09:18;;;;;;;48.78;43.55;;;;;;;1.04;100.00;94110.66;5086783;28;20077;-63
2022/12/09 07:11:45;;;;;;;48.00;42.42;;;;;;;1.02;100.00;94109.97;5085044;28;20027;-63
2022/12/09 07:14:12;;;;;;;46.55;41.63;;;;;;;0.97;100.00;94111.16;5080070;28;20039;-60
2022/12/09 07:16:37;;;;;;;43.20;38.08;;;;;;;0.91;100.00;94111.66;5086332;28;20489;-60
2022/12/09 07:19:03;;;;;;;43.38;38.83;;;;;;;0.93;100.00;94108.94;5082547;28;20197;-60
2022/12/09 07:21:29;;;;;;;47.63;39.85;;;;;;;0.91;100.00;94116.00;5088026;28;20050;-60
2022/12/09 07:24:01;;;;;;;44.33;39.42;;;;;;;0.91;100.00;94116.84;5083242;28;20032;-59
2022/12/09 07:26:30;;;;;;;48.58;43.58;;;;;;;1.03;100.00;94112.44;5085444;28;20020;-60
2022/12/09 07:28:56;;;;;;;39.63;35.42;;;;;;;1.01;100.00;94116.94;5082797;28;20024;-60
2022/12/09 07:31:26;;;;;;;31.77;28.33;;;;;;;1.01;100.00;94122.13;5082445;28;20027;-62
2022/12/09 07:33:53;;;;;;;28.30;25.67;;;;;;;1.08;100.00;94123.25;5081554;28;20039;-62
2022/12/09 07:36:24;;;;;;;27.13;24.63;;;;;;;1.16;100.00;94129.59;5081518;28;20024;-62
2022/12/09 07:38:56;;;;;;;24.48;22.10;;;;;;;1.30;100.00;94137.09;5084084;28;20129;-61
2022/12/09 07:41:23;;;;;;;24.05;21.85;;;;;;;1.20;100.00;94125.81;5088327;28;20039;-60
2022/12/09 07:43:48;;;;;;;26.55;23.75;;;;;;;1.25;100.00;94136.66;5082182;28;20095;-61
2022/12/09 07:46:16;;;;;;;24.83;22.45;;;;;;;1.22;100.00;94131.72;5081835;28;20102;-62
2022/12/09 07:48:41;;;;;;;22.42;20.13;;;;;;;1.17;100.00;94126.88;5083643;28;20032;-62
2022/12/09 07:51:07;;;;;;;23.33;21.25;;;;;;;1.17;100.00;94126.88;5079222;28;20042;-68
2022/12/09 07:53:34;;;;;;;26.00;23.60;;;;;;;1.26;100.00;94130.50;5084381;28;20017;-65
2022/12/09 07:56:02;;;;;;;27.83;25.38;;;;;;;1.22;100.00;94119.56;5082393;28;20020;-65
2022/12/09 07:58:28;;;;;;;25.83;23.45;;;;;;;1.20;100.00;94126.63;5080091;28;20025;-66
2022/12/09 08:00:53;;;;;;;30.40;27.10;;;;;;;1.20;100.00;94123.22;5088735;28;20024;-65
2022/12/09 08:03:19;;;;;;;28.95;25.98;;;;;;;1.17;100.00;94126.88;5086234;28;20382;-66
2022/12/09 08:05:51;;;;;;;32.08;28.63;;;;;;;1.17;100.00;94131.22;5083258;28;20512;-65
2022/12/09 08:08:17;;;;;;;28.48;25.58;;;;;;;1.17;100.00;94124.28;5087275;28;20032;-61
2022/12/09 08:10:43;;;;;;;21.95;19.85;;;;;;;1.17;100.00;94123.47;5086007;28;20081;-62
2022/12/09 08:13:08;;;;;;;20.88;18.75;;;;;;;1.20;100.00;94125.81;5085909;28;20042;-66
2022/12/09 08:15:34;;;;;;;21.13;19.30;;;;;;;1.33;100.00;94116.09;5076673;28;20023;-66
2022/12/09 08:18:00;;;;;;;20.23;18.23;;;;;;;1.30;100.00;94121.53;5077204;28;20035;-66
2022/12/09 08:20:25;;;;;;;20.27;18.38;;;;;;;1.29;100.00;94119.91;5075351;28;20028;-65
2022/12/09 08:22:51;;;;;;;22.02;19.88;;;;;;;1.25;100.00;94115.91;5079986;28;20042;-66
2022/12/09 08:25:16;;;;;;;24.98;22.45;;;;;;;1.43;100.00;94106.59;5082041;28;20016;-66
2022/12/09 08:27:41;;;;;;;26.80;24.10;;;;;;;1.33;100.00;94116.09;5063885;28;20140;-61
2022/12/09 08:30:07;;;;;;;27.85;24.58;;;;;;;1.29;100.00;94127.66;5082970;28;20373;-60
2022/12/09 08:32:32;;;;;;;24.85;22.55;;;;;;;1.24;100.00;94122.84;5082712;28;20089;-64
2022/12/09 08:34:58;;;;;;;24.92;22.63;;;;;;;1.25;100.00;94128.88;5079033;28;20024;-63
2022/12/09 08:37:23;;;;;;;24.27;22.10;;;;;;;1.22;100.00;94126.53;5084474;28;20497;-64
2022/12/09 08:39:49;;;;;;;23.75;21.52;;;;;;;1.18;100.00;94132.88;5081566;28;20486;-63
2022/12/09 08:42:14;;;;;;;21.42;19.40;;;;;;;1.16;100.00;94127.84;5076129;28;20683;-64
2022/12/09 08:44:39;;;;;;;22.90;20.85;;;;;;;1.14;100.00;94137.50;5084569;28;20031;-64
2022/12/09 08:47:05;;;;;;;22.10;20.10;;;;;;;1.14;100.00;94132.31;5081535;28;20044;-66
2022/12/09 08:49:30;;;;;;;22.38;20.38;;;;;;;1.14;100.00;94127.13;5074391;28;20032;-65
2022/12/09 08:51:56;;;;;;;21.77;19.65;;;;;;;1.13;100.00;94130.69;5082457;28;20021;-62
2022/12/09 08:54:22;;;;;;;20.75;18.98;;;;;;;1.13;100.00;94135.88;5084260;28;20023;-62
2022/12/09 08:56:52;;;;;;;20.05;18.15;;;;;;;1.18;100.00;94138.06;5082944;28;20115;-61
2022/12/09 08:59:17;;;;;;;20.30;18.55;;;;;;;1.22;100.00;94135.13;5066946;28;20452;-62
2022/12/09 09:01:43;;;;;;;21.73;19.88;;;;;;;1.28;100.00;94134.63;5083433;28;20028;-62
2022/12/09 09:04:11;;;;;;;25.48;22.98;;;;;;;1.38;100.00;94145.06;5083817;28;20031;-61
2022/12/09 09:06:38;;;;;;;32.58;29.20;;;;;;;1.43;100.00;94142.13;5084001;28;20036;-59
2022/12/09 09:09:05;;;;;;;27.27;24.65;;;;;;;1.46;100.00;94135.88;5083528;28;20024;-65
2022/12/09 09:11:31;;;;;;;26.35;23.70;;;;;;;1.51;100.00;94139.72;5085697;28;20111;-62
2022/12/09 09:13:57;;;;;;;22.75;20.65;;;;;;;1.64;100.00;94139.53;5078393;28;20027;-62
2022/12/09 09:16:24;;;;;;;23.35;21.20;;;;;;;1.62;100.00;94132.84;5075995;28;20020;-61
2022/12/09 09:18:50;;;;;;;24.00;21.83;;;;;;;1.63;100.00;94137.06;5074683;28;20074;-62
2022/12/09 09:21:18;;;;;;;27.00;24.48;;;;;;;1.67;100.00;94134.13;5082902;28;20557;-62
2022/12/09 09:23:44;;;;;;;26.77;24.17;;;;;;;1.64;100.00;94133.53;5075422;28;20040;-62
2022/12/09 09:26:24;;;;;;;26.30;23.80;;;;;;;1.63;100.00;94134.47;5078961;28;20055;-66
2022/12/09 09:28:51;;;;;;;27.73;24.92;;;;;;;1.59;100.00;94136.50;5075426;28;20086;-64
2022/12/09 09:31:19;;;;;;;24.92;22.52;;;;;;;1.63;100.00;94130.09;5079412;28;20036;-64
2022/12/09 09:33:46;;;;;;;23.38;21.20;;;;;;;1.61;100.00;94133.78;5079191;28;20028;-64
2022/12/09 09:36:22;;;;;;;24.40;21.95;;;;;;;1.64;100.00;94139.53;5083995;28;20064;-64
2022/12/09 09:38:49;;;;;;;23.63;21.42;;;;;;;1.68;100.00;94138.34;5083995;28;20048;-64
2022/12/09 09:41:39;;;;;;;23.45;21.35;;;;;;;1.77;100.00;94144.56;5087869;28;20586;-63
2022/12/09 09:44:43;;;;;;;23.73;21.42;;;;;;;1.71;100.00;94140.69;5080332;28;20028;-64
2022/12/09 09:47:26;;;;;;;22.85;20.45;;;;;;;1.65;100.00;94142.97;5078681;28;20115;-66
2022/12/09 09:49:57;;;;;;;30.98;27.88;;;;;;;1.59;100.00;94140.88;5080887;28;20028;-59
2022/12/09 09:52:26;;;;;;;49.50;41.90;;;;;;;1.56;100.00;94144.53;5075884;28;20024;-59
2022/12/09 09:54:51;;;;;;;34.67;31.13;;;;;;;1.55;100.00;94141.13;5078161;28;20024;-60
2022/12/09 09:57:41;;;;;;;33.63;30.17;;;;;;;1.62;100.00;94136.25;5081843;28;20090;-60
2022/12/09 10:00:30;;;;;;;30.88;27.88;;;;;;;1.61;100.00;94139.78;5074595;28;20035;-60
2022/12/09 10:03:03;;;;;;;35.83;32.22;;;;;;;1.72;100.00;94131.13;5069013;28;20424;-60
2022/12/09 10:05:41;;;;;;;38.15;34.30;;;;;;;1.72;100.00;94136.31;5079162;28;20024;-64
2022/12/09 10:08:39;;;;;;;27.60;24.88;;;;;;;1.69;100.00;94136.56;5082131;28;20029;-62
2022/12/09 10:11:15;;;;;;;24.55;22.23;;;;;;;1.67;100.00;94128.94;5087069;28;20076;-62
2022/12/09 10:13:40;;;;;;;22.85;20.73;;;;;;;1.74;100.00;94128.41;5084616;28;20016;-62
2022/12/09 10:16:16;;;;;;;24.05;21.58;;;;;;;1.81;100.00;94132.13;5081852;28;20386;-62
2022/12/09 10:19:00;;;;;;;;;;;;;;;1.94;100.00;94116.38;5084870;28;20099;-62
2022/12/09 10:21:27;;;;;;;23.63;21.52;;;;;;;2.10;100.00;94114.13;5089542;28;20034;-62
2022/12/09 10:23:54;;;;;;;27.90;25.17;;;;;;;2.05;100.00;94110.28;5083373;28;20035;-60
2022/12/09 10:26:29;;;;;;;25.63;23.25;;;;;;;2.06;100.00;94111.91;5084845;28;20468;-59
2022/12/09 10:29:06;;;;;;;25.60;23.23;;;;;;;2.04;100.00;94119.00;5084688;28;20765;-62
2022/12/09 10:31:31;;;;;;;23.65;21.50;;;;;;;2.04;100.00;94119.84;5085561;28;20031;-62
2022/12/09 10:33:57;;;;;;;22.75;20.75;;;;;;;2.02;100.00;94116.56;5082897;28;20028;-62
2022/12/09 10:36:25;;;;;;;23.40;21.10;;;;;;;1.96;100.00;94127.44;5088939;28;20020;-62
2022/12/09 10:38:50;;;;;;;24.17;22.02;;;;;;;1.90;100.00;94123.59;5086769;28;20036;-62
2022/12/09 10:44:34;;;;;;;21.35;19.17;;;;;;;1.89;100.00;94105.56;5084729;28;20040;-62
2022/12/09 10:47:06;;;;;;;21.38;19.48;;;;;;;1.88;100.00;94104.75;5085115;28;20024;-59
2022/12/09 10:49:34;;;;;;;21.90;19.90;;;;;;;1.86;100.00;94101.44;5075171;28;20070;-59
2022/12/09 10:52:00;;;;;;;21.75;19.60;;;;;;;2.00;100.00;94102.91;5085702;28;20043;-59
2022/12/09 10:54:31;;;;;;;24.27;21.92;;;;;;;2.08;100.00;94094.44;5082314;28;20489;-58
2022/12/09 10:57:06;;;;;;;25.05;22.65;;;;;;;2.08;100.00;94095.28;5085480;28;20469;-59
2022/12/09 10:59:33;;;;;;;27.00;24.55;;;;;;;2.09;100.00;94102.09;5085207;28;20032;-59
2022/12/09 11:02:01;;;;;;;26.23;23.63;;;;;;;2.12;100.00;94101.84;5087547;28;20107;-60
2022/12/09 11:04:33;;;;;;;26.73;24.13;;;;;;;2.08;100.00;94095.28;5085307;28;20028;-61
2022/12/09 11:07:10;;;;;;;25.70;23.30;;;;;;;2.05;100.00;94099.91;5082996;28;20020;-58
2022/12/09 11:09:39;;;;;;;21.15;19.25;;;;;;;2.07;100.00;94101.41;5083815;28;20027;-59
2022/12/09 11:12:14;;;;;;;21.27;19.27;;;;;;;2.03;100.00;94105.22;5086542;28;20122;-58
2022/12/09 11:14:48;;;;;;;22.30;20.27;;;;;;;2.02;100.00;94105.34;5087759;28;20036;-59
2022/12/09 11:17:19;;;;;;;22.85;20.60;;;;;;;2.02;100.00;94115.72;5081132;28;20513;-58
2022/12/09 11:19:49;;;;;;;21.05;18.88;;;;;;;2.06;100.00;94109.31;5084818;28;20048;-59
2022/12/09 11:22:38;;;;;;;19.73;17.90;;;;;;;2.18;100.00;94110.91;5086610;28;20020;-60
2022/12/09 11:25:26;;;;;;;20.02;17.98;;;;;;;2.23;100.00;94113.94;5083430;28;20119;-61
2022/12/09 11:27:53;;;;;;;18.67;17.08;;;;;;;2.28;100.00;94109.16;5079548;28;20028;-61